sensor_id;sensor_type;location;lat;lon;timestamp;temperature;humidity
5675;DHT22;2860;54.284;10.158;2023-06-04T00:02:11;8.80;99.90
5675;DHT22;2860;54.284;10.158;2023-06-04T00:04:37;8.80;99.90
5675;DHT22;2860;54.284;10.158;2023-06-04T00:07:03;8.70;99.90
5675;DHT22;2860;54.284;10.158;2023-06-04T00:09:28;8.70;99.90
5675;DHT22;2860;54.284;10.158;2023-06-04T00:11:55;8.70;99.90
5675;DHT22;2860;54.284;10.158;2023-06-04T00:14:21;8.70;99.90
5675;DHT22;2860;54.284;10.158;2023-06-04T00:16:46;8.60;99.90
5675;DHT22;2860;54.284;10.158;2023-06-04T00:19:12;8.60;99.90
5675;DHT22;2860;54.284;10.158;2023-06-04T00:21:37;8.60;99.90
5675;DHT22;2860;54.284;10.158;2023-06-04T00:24:03;8.50;99.90
5675;DHT22;2860;54.284;10.158;2023-06-04T00:26:28;8.50;99.90
5675;DHT22;2860;54.284;10.158;2023-06-04T00:28:54;8.50;99.90
5675;DHT22;2860;54.284;10.158;2023-06-04T00:31:20;8.50;99.90
5675;DHT22;2860;54.284;10.158;2023-06-04T00:33:47;8.50;99.90
5675;DHT22;2860;54.284;10.158;2023-06-04T00:36:12;8.50;99.90
5675;DHT22;2860;54.284;10.158;2023-06-04T00:38:38;8.50;99.90
5675;DHT22;2860;54.284;10.158;2023-06-04T00:41:03;8.40;99.90
5675;DHT22;2860;54.284;10.158;2023-06-04T00:43:29;8.40;99.90
5675;DHT22;2860;54.284;10.158;2023-06-04T00:45:57;8.40;99.90
5675;DHT22;2860;54.284;10.158;2023-06-04T00:48:23;8.40;99.90
5675;DHT22;2860;54.284;10.158;2023-06-04T00:50:49;8.40;99.90
5675;DHT22;2860;54.284;10.158;2023-06-04T00:53:15;8.30;99.90
5675;DHT22;2860;54.284;10.158;2023-06-04T00:55:41;8.30;99.90
5675;DHT22;2860;54.284;10.158;2023-06-04T00:58:08;8.30;99.90
5675;DHT22;2860;54.284;10.158;2023-06-04T01:00:35;8.30;99.90
5675;DHT22;2860;54.284;10.158;2023-06-04T01:03:05;8.20;99.90
5675;DHT22;2860;54.284;10.158;2023-06-04T01:05:37;8.20;99.90
5675;DHT22;2860;54.284;10.158;2023-06-04T01:08:04;8.20;99.90
5675;DHT22;2860;54.284;10.158;2023-06-04T01:10:31;8.20;99.90
5675;DHT22;2860;54.284;10.158;2023-06-04T01:12:56;8.20;99.90
5675;DHT22;2860;54.284;10.158;2023-06-04T01:15:22;8.20;99.90
5675;DHT22;2860;54.284;10.158;2023-06-04T01:17:54;8.10;99.90
5675;DHT22;2860;54.284;10.158;2023-06-04T01:25:41;8.00;99.90
5675;DHT22;2860;54.284;10.158;2023-06-04T01:28:10;8.00;99.90
5675;DHT22;2860;54.284;10.158;2023-06-04T01:30:39;7.90;99.90
5675;DHT22;2860;54.284;10.158;2023-06-04T01:33:12;7.90;99.90
5675;DHT22;2860;54.284;10.158;2023-06-04T01:35:37;7.90;99.90
5675;DHT22;2860;54.284;10.158;2023-06-04T01:38:03;7.90;99.90
5675;DHT22;2860;54.284;10.158;2023-06-04T01:40:29;7.80;99.90
5675;DHT22;2860;54.284;10.158;2023-06-04T01:42:55;7.80;99.90
5675;DHT22;2860;54.284;10.158;2023-06-04T01:45:22;7.70;99.90
5675;DHT22;2860;54.284;10.158;2023-06-04T01:47:48;7.70;99.90
5675;DHT22;2860;54.284;10.158;2023-06-04T01:50:13;7.70;99.90
5675;DHT22;2860;54.284;10.158;2023-06-04T01:52:40;7.60;99.90
5675;DHT22;2860;54.284;10.158;2023-06-04T01:55:07;7.60;99.90
5675;DHT22;2860;54.284;10.158;2023-06-04T01:57:33;7.60;99.90
5675;DHT22;2860;54.284;10.158;2023-06-04T02:00:00;7.60;99.90
5675;DHT22;2860;54.284;10.158;2023-06-04T02:02:26;7.60;99.90
5675;DHT22;2860;54.284;10.158;2023-06-04T02:04:52;7.50;99.90
5675;DHT22;2860;54.284;10.158;2023-06-04T02:07:19;7.50;99.90
5675;DHT22;2860;54.284;10.158;2023-06-04T02:09:46;7.50;99.90
5675;DHT22;2860;54.284;10.158;2023-06-04T02:12:12;7.50;99.90
5675;DHT22;2860;54.284;10.158;2023-06-04T02:14:38;7.50;99.90
5675;DHT22;2860;54.284;10.158;2023-06-04T02:17:05;7.40;99.90
5675;DHT22;2860;54.284;10.158;2023-06-04T02:19:38;7.40;99.90
5675;DHT22;2860;54.284;10.158;2023-06-04T02:22:05;7.40;99.90
5675;DHT22;2860;54.284;10.158;2023-06-04T02:24:31;7.30;99.90
5675;DHT22;2860;54.284;10.158;2023-06-04T02:26:56;7.30;99.90
5675;DHT22;2860;54.284;10.158;2023-06-04T02:29:22;7.30;99.90
5675;DHT22;2860;54.284;10.158;2023-06-04T02:31:47;7.30;99.90
5675;DHT22;2860;54.284;10.158;2023-06-04T02:34:12;7.30;99.90
5675;DHT22;2860;54.284;10.158;2023-06-04T02:36:38;7.30;99.90
5675;DHT22;2860;54.284;10.158;2023-06-04T02:39:03;7.20;99.90
5675;DHT22;2860;54.284;10.158;2023-06-04T02:41:29;7.20;99.90
5675;DHT22;2860;54.284;10.158;2023-06-04T02:43:54;7.20;99.90
5675;DHT22;2860;54.284;10.158;2023-06-04T02:46:20;7.10;99.90
5675;DHT22;2860;54.284;10.158;2023-06-04T02:48:45;7.10;99.90
5675;DHT22;2860;54.284;10.158;2023-06-04T02:51:11;7.20;99.90
5675;DHT22;2860;54.284;10.158;2023-06-04T02:53:37;7.10;99.90
5675;DHT22;2860;54.284;10.158;2023-06-04T02:56:02;7.10;99.90
5675;DHT22;2860;54.284;10.158;2023-06-04T02:58:28;7.10;99.90
5675;DHT22;2860;54.284;10.158;2023-06-04T03:00:54;7.10;99.90
5675;DHT22;2860;54.284;10.158;2023-06-04T03:03:20;7.10;99.90
5675;DHT22;2860;54.284;10.158;2023-06-04T03:05:46;7.10;99.90
5675;DHT22;2860;54.284;10.158;2023-06-04T03:08:11;7.10;99.90
5675;DHT22;2860;54.284;10.158;2023-06-04T03:10:37;7.20;99.90
5675;DHT22;2860;54.284;10.158;2023-06-04T03:13:03;7.20;99.90
5675;DHT22;2860;54.284;10.158;2023-06-04T03:15:29;7.20;99.90
5675;DHT22;2860;54.284;10.158;2023-06-04T03:17:54;7.20;99.90
5675;DHT22;2860;54.284;10.158;2023-06-04T03:20:20;7.20;99.90
5675;DHT22;2860;54.284;10.158;2023-06-04T03:22:50;7.20;99.90
5675;DHT22;2860;54.284;10.158;2023-06-04T03:25:16;7.30;99.90
5675;DHT22;2860;54.284;10.158;2023-06-04T03:27:41;7.30;99.90
5675;DHT22;2860;54.284;10.158;2023-06-04T03:30:07;7.30;99.90
5675;DHT22;2860;54.284;10.158;2023-06-04T03:32:33;7.30;99.90
5675;DHT22;2860;54.284;10.158;2023-06-04T03:35:00;7.30;99.90
5675;DHT22;2860;54.284;10.158;2023-06-04T03:37:25;7.40;99.90
5675;DHT22;2860;54.284;10.158;2023-06-04T03:39:52;7.40;99.90
5675;DHT22;2860;54.284;10.158;2023-06-04T03:42:17;7.40;99.90
5675;DHT22;2860;54.284;10.158;2023-06-04T03:44:43;7.40;99.90
5675;DHT22;2860;54.284;10.158;2023-06-04T03:47:09;7.40;99.90
5675;DHT22;2860;54.284;10.158;2023-06-04T03:49:35;7.50;99.90
5675;DHT22;2860;54.284;10.158;2023-06-04T03:52:00;7.50;99.90
5675;DHT22;2860;54.284;10.158;2023-06-04T03:54:26;7.60;99.90
5675;DHT22;2860;54.284;10.158;2023-06-04T03:56:51;7.60;99.90
5675;DHT22;2860;54.284;10.158;2023-06-04T03:59:17;7.60;99.90
5675;DHT22;2860;54.284;10.158;2023-06-04T04:01:43;7.70;99.90
5675;DHT22;2860;54.284;10.158;2023-06-04T04:04:09;7.70;99.90
5675;DHT22;2860;54.284;10.158;2023-06-04T04:06:34;7.80;99.90
5675;DHT22;2860;54.284;10.158;2023-06-04T04:09:01;7.80;99.90
5675;DHT22;2860;54.284;10.158;2023-06-04T04:11:27;7.90;99.90
5675;DHT22;2860;54.284;10.158;2023-06-04T04:13:53;7.90;99.90
5675;DHT22;2860;54.284;10.158;2023-06-04T04:16:18;8.00;99.90
5675;DHT22;2860;54.284;10.158;2023-06-04T04:18:44;8.10;99.90
5675;DHT22;2860;54.284;10.158;2023-06-04T04:21:10;8.10;99.90
5675;DHT22;2860;54.284;10.158;2023-06-04T04:23:38;8.20;99.90
5675;DHT22;2860;54.284;10.158;2023-06-04T04:26:05;8.30;99.90
5675;DHT22;2860;54.284;10.158;2023-06-04T04:28:31;8.30;99.90
5675;DHT22;2860;54.284;10.158;2023-06-04T04:30:58;8.40;99.90
5675;DHT22;2860;54.284;10.158;2023-06-04T04:33:28;8.50;99.90
5675;DHT22;2860;54.284;10.158;2023-06-04T04:35:58;8.60;99.90
5675;DHT22;2860;54.284;10.158;2023-06-04T04:38:25;8.70;99.90
5675;DHT22;2860;54.284;10.158;2023-06-04T04:40:50;8.70;99.90
5675;DHT22;2860;54.284;10.158;2023-06-04T04:43:29;8.80;99.90
5675;DHT22;2860;54.284;10.158;2023-06-04T04:45:55;8.90;99.90
5675;DHT22;2860;54.284;10.158;2023-06-04T04:48:21;9.00;99.90
5675;DHT22;2860;54.284;10.158;2023-06-04T04:50:46;9.00;99.90
5675;DHT22;2860;54.284;10.158;2023-06-04T04:53:12;9.20;99.90
5675;DHT22;2860;54.284;10.158;2023-06-04T04:55:37;9.30;99.90
5675;DHT22;2860;54.284;10.158;2023-06-04T04:58:03;10.00;99.90
5675;DHT22;2860;54.284;10.158;2023-06-04T05:00:29;10.90;99.90
5675;DHT22;2860;54.284;10.158;2023-06-04T05:02:55;12.00;99.90
5675;DHT22;2860;54.284;10.158;2023-06-04T05:05:20;13.00;99.90
5675;DHT22;2860;54.284;10.158;2023-06-04T05:07:46;13.80;99.90
5675;DHT22;2860;54.284;10.158;2023-06-04T05:10:12;14.40;99.90
5675;DHT22;2860;54.284;10.158;2023-06-04T05:12:38;14.90;99.90
5675;DHT22;2860;54.284;10.158;2023-06-04T05:15:04;15.50;99.90
5675;DHT22;2860;54.284;10.158;2023-06-04T05:17:30;16.00;99.90
5675;DHT22;2860;54.284;10.158;2023-06-04T05:19:58;16.20;99.90
5675;DHT22;2860;54.284;10.158;2023-06-04T05:22:30;16.60;99.90
5675;DHT22;2860;54.284;10.158;2023-06-04T05:24:57;17.00;99.90
5675;DHT22;2860;54.284;10.158;2023-06-04T05:27:24;17.20;99.90
5675;DHT22;2860;54.284;10.158;2023-06-04T05:29:50;17.20;99.90
5675;DHT22;2860;54.284;10.158;2023-06-04T05:32:15;17.40;99.90
5675;DHT22;2860;54.284;10.158;2023-06-04T05:34:41;17.60;99.90
5675;DHT22;2860;54.284;10.158;2023-06-04T05:37:07;17.70;99.90
5675;DHT22;2860;54.284;10.158;2023-06-04T05:39:33;18.00;99.90
5675;DHT22;2860;54.284;10.158;2023-06-04T05:42:00;18.10;99.90
5675;DHT22;2860;54.284;10.158;2023-06-04T05:44:25;18.30;99.90
5675;DHT22;2860;54.284;10.158;2023-06-04T05:46:51;18.60;99.90
5675;DHT22;2860;54.284;10.158;2023-06-04T05:49:16;18.70;99.90
5675;DHT22;2860;54.284;10.158;2023-06-04T05:51:42;18.70;99.90
5675;DHT22;2860;54.284;10.158;2023-06-04T05:54:07;18.80;99.90
5675;DHT22;2860;54.284;10.158;2023-06-04T05:56:33;18.90;99.90
5675;DHT22;2860;54.284;10.158;2023-06-04T05:58:58;19.00;99.90
5675;DHT22;2860;54.284;10.158;2023-06-04T06:01:24;19.10;99.90
5675;DHT22;2860;54.284;10.158;2023-06-04T06:03:49;19.00;99.90
5675;DHT22;2860;54.284;10.158;2023-06-04T06:06:16;18.70;99.90
5675;DHT22;2860;54.284;10.158;2023-06-04T06:08:41;18.50;99.90
5675;DHT22;2860;54.284;10.158;2023-06-04T06:11:07;18.30;99.90
5675;DHT22;2860;54.284;10.158;2023-06-04T06:13:32;18.10;99.90
5675;DHT22;2860;54.284;10.158;2023-06-04T06:15:58;18.10;99.90
5675;DHT22;2860;54.284;10.158;2023-06-04T06:18:23;18.10;99.90
5675;DHT22;2860;54.284;10.158;2023-06-04T06:20:49;18.30;99.90
5675;DHT22;2860;54.284;10.158;2023-06-04T06:23:14;18.30;99.90
5675;DHT22;2860;54.284;10.158;2023-06-04T06:25:41;18.30;99.90
5675;DHT22;2860;54.284;10.158;2023-06-04T06:28:11;18.10;99.90
5675;DHT22;2860;54.284;10.158;2023-06-04T06:30:37;17.80;99.90
5675;DHT22;2860;54.284;10.158;2023-06-04T06:33:02;17.60;99.90
5675;DHT22;2860;54.284;10.158;2023-06-04T06:35:28;17.30;99.90
5675;DHT22;2860;54.284;10.158;2023-06-04T06:37:53;17.20;99.90
5675;DHT22;2860;54.284;10.158;2023-06-04T06:40:19;17.10;99.90
5675;DHT22;2860;54.284;10.158;2023-06-04T06:42:49;17.00;99.90
5675;DHT22;2860;54.284;10.158;2023-06-04T06:45:15;16.90;99.90
5675;DHT22;2860;54.284;10.158;2023-06-04T06:47:41;16.80;99.90
5675;DHT22;2860;54.284;10.158;2023-06-04T06:50:07;16.50;99.90
5675;DHT22;2860;54.284;10.158;2023-06-04T06:52:32;16.30;99.90
5675;DHT22;2860;54.284;10.158;2023-06-04T06:54:58;16.10;99.90
5675;DHT22;2860;54.284;10.158;2023-06-04T06:57:23;15.90;99.90
5675;DHT22;2860;54.284;10.158;2023-06-04T06:59:49;15.80;99.90
5675;DHT22;2860;54.284;10.158;2023-06-04T07:02:17;15.70;99.90
5675;DHT22;2860;54.284;10.158;2023-06-04T07:04:42;15.70;99.90
5675;DHT22;2860;54.284;10.158;2023-06-04T07:07:08;15.70;99.90
5675;DHT22;2860;54.284;10.158;2023-06-04T07:09:33;15.70;99.90
5675;DHT22;2860;54.284;10.158;2023-06-04T07:11:59;15.60;99.90
5675;DHT22;2860;54.284;10.158;2023-06-04T07:14:24;15.70;99.90
5675;DHT22;2860;54.284;10.158;2023-06-04T07:16:50;15.70;99.90
5675;DHT22;2860;54.284;10.158;2023-06-04T07:19:16;15.90;99.90
5675;DHT22;2860;54.284;10.158;2023-06-04T07:21:41;16.10;99.90
5675;DHT22;2860;54.284;10.158;2023-06-04T07:24:07;16.30;99.90
5675;DHT22;2860;54.284;10.158;2023-06-04T07:26:32;16.50;99.90
5675;DHT22;2860;54.284;10.158;2023-06-04T07:29:01;16.70;99.90
5675;DHT22;2860;54.284;10.158;2023-06-04T07:31:27;16.70;99.90
5675;DHT22;2860;54.284;10.158;2023-06-04T07:33:52;16.50;99.90
5675;DHT22;2860;54.284;10.158;2023-06-04T07:36:18;16.50;99.90
5675;DHT22;2860;54.284;10.158;2023-06-04T07:38:43;16.50;99.90
5675;DHT22;2860;54.284;10.158;2023-06-04T07:41:09;16.50;99.90
5675;DHT22;2860;54.284;10.158;2023-06-04T07:43:36;16.50;99.90
5675;DHT22;2860;54.284;10.158;2023-06-04T07:46:02;16.70;99.90
5675;DHT22;2860;54.284;10.158;2023-06-04T07:48:28;16.70;99.90
5675;DHT22;2860;54.284;10.158;2023-06-04T07:50:57;16.80;99.90
5675;DHT22;2860;54.284;10.158;2023-06-04T07:53:23;16.80;99.90
5675;DHT22;2860;54.284;10.158;2023-06-04T07:55:49;17.00;99.90
5675;DHT22;2860;54.284;10.158;2023-06-04T07:58:14;17.00;99.90
5675;DHT22;2860;54.284;10.158;2023-06-04T08:00:40;17.20;99.90
5675;DHT22;2860;54.284;10.158;2023-06-04T08:03:06;17.20;99.90
5675;DHT22;2860;54.284;10.158;2023-06-04T08:05:32;17.30;99.90
5675;DHT22;2860;54.284;10.158;2023-06-04T08:07:57;17.40;99.90
5675;DHT22;2860;54.284;10.158;2023-06-04T08:10:23;17.50;99.90
5675;DHT22;2860;54.284;10.158;2023-06-04T08:12:48;17.50;99.90
5675;DHT22;2860;54.284;10.158;2023-06-04T08:15:14;17.70;99.90
5675;DHT22;2860;54.284;10.158;2023-06-04T08:17:39;17.80;99.90
5675;DHT22;2860;54.284;10.158;2023-06-04T08:20:05;18.00;99.90
5675;DHT22;2860;54.284;10.158;2023-06-04T08:22:31;18.10;99.90
5675;DHT22;2860;54.284;10.158;2023-06-04T08:24:57;18.20;99.90
5675;DHT22;2860;54.284;10.158;2023-06-04T08:27:23;18.30;99.90
5675;DHT22;2860;54.284;10.158;2023-06-04T08:29:48;18.30;99.90
5675;DHT22;2860;54.284;10.158;2023-06-04T08:32:14;18.30;99.90
5675;DHT22;2860;54.284;10.158;2023-06-04T08:34:39;18.30;99.90
5675;DHT22;2860;54.284;10.158;2023-06-04T08:37:06;18.30;99.90
5675;DHT22;2860;54.284;10.158;2023-06-04T08:39:31;18.50;99.90
5675;DHT22;2860;54.284;10.158;2023-06-04T08:42:04;18.60;99.90
5675;DHT22;2860;54.284;10.158;2023-06-04T08:44:33;18.50;99.90
5675;DHT22;2860;54.284;10.158;2023-06-04T08:47:04;18.60;99.90
5675;DHT22;2860;54.284;10.158;2023-06-04T08:49:34;18.70;99.90
5675;DHT22;2860;54.284;10.158;2023-06-04T08:52:03;18.80;99.90
5675;DHT22;2860;54.284;10.158;2023-06-04T08:54:29;18.80;99.90
5675;DHT22;2860;54.284;10.158;2023-06-04T08:56:57;18.90;99.90
5675;DHT22;2860;54.284;10.158;2023-06-04T08:59:23;19.10;99.90
5675;DHT22;2860;54.284;10.158;2023-06-04T09:01:53;19.10;99.90
5675;DHT22;2860;54.284;10.158;2023-06-04T09:04:19;19.20;99.90
5675;DHT22;2860;54.284;10.158;2023-06-04T09:06:44;19.30;99.90
5675;DHT22;2860;54.284;10.158;2023-06-04T09:09:12;19.40;99.90
5675;DHT22;2860;54.284;10.158;2023-06-04T09:11:54;19.40;99.90
5675;DHT22;2860;54.284;10.158;2023-06-04T09:14:20;19.40;99.90
5675;DHT22;2860;54.284;10.158;2023-06-04T09:16:48;19.50;99.90
5675;DHT22;2860;54.284;10.158;2023-06-04T09:19:14;19.50;99.90
5675;DHT22;2860;54.284;10.158;2023-06-04T09:21:50;19.50;99.90
5675;DHT22;2860;54.284;10.158;2023-06-04T09:24:20;19.60;99.90
5675;DHT22;2860;54.284;10.158;2023-06-04T09:26:46;19.70;99.90
5675;DHT22;2860;54.284;10.158;2023-06-04T09:29:12;19.70;99.90
5675;DHT22;2860;54.284;10.158;2023-06-04T09:31:37;19.80;99.90
5675;DHT22;2860;54.284;10.158;2023-06-04T09:34:08;19.90;99.90
5675;DHT22;2860;54.284;10.158;2023-06-04T09:36:34;19.90;99.90
5675;DHT22;2860;54.284;10.158;2023-06-04T09:39:03;20.10;99.90
5675;DHT22;2860;54.284;10.158;2023-06-04T09:41:30;20.10;99.90
5675;DHT22;2860;54.284;10.158;2023-06-04T09:44:02;20.10;99.90
5675;DHT22;2860;54.284;10.158;2023-06-04T09:46:28;20.10;99.90
5675;DHT22;2860;54.284;10.158;2023-06-04T09:49:04;20.20;99.90
5675;DHT22;2860;54.284;10.158;2023-06-04T09:51:31;20.10;99.90
5675;DHT22;2860;54.284;10.158;2023-06-04T09:54:01;20.10;99.90
5675;DHT22;2860;54.284;10.158;2023-06-04T09:56:27;20.20;99.90
5675;DHT22;2860;54.284;10.158;2023-06-04T09:58:55;20.40;99.90
5675;DHT22;2860;54.284;10.158;2023-06-04T10:01:23;20.60;99.90
5675;DHT22;2860;54.284;10.158;2023-06-04T10:03:50;20.70;99.90
5675;DHT22;2860;54.284;10.158;2023-06-04T10:06:19;20.70;99.90
5675;DHT22;2860;54.284;10.158;2023-06-04T10:08:46;20.50;99.90
5675;DHT22;2860;54.284;10.158;2023-06-04T10:11:12;20.40;99.90
5675;DHT22;2860;54.284;10.158;2023-06-04T10:16:11;20.40;99.90
5675;DHT22;2860;54.284;10.158;2023-06-04T10:18:37;20.40;99.90
5675;DHT22;2860;54.284;10.158;2023-06-04T10:21:04;20.50;99.90
5675;DHT22;2860;54.284;10.158;2023-06-04T10:23:30;20.60;99.90
5675;DHT22;2860;54.284;10.158;2023-06-04T10:25:55;20.80;99.90
5675;DHT22;2860;54.284;10.158;2023-06-04T10:28:23;21.20;99.90
5675;DHT22;2860;54.284;10.158;2023-06-04T10:30:49;21.20;99.90
5675;DHT22;2860;54.284;10.158;2023-06-04T10:33:19;21.10;99.90
5675;DHT22;2860;54.284;10.158;2023-06-04T10:35:50;21.10;99.90
5675;DHT22;2860;54.284;10.158;2023-06-04T10:38:17;21.00;99.90
5675;DHT22;2860;54.284;10.158;2023-06-04T10:40:44;21.10;99.90
5675;DHT22;2860;54.284;10.158;2023-06-04T10:43:14;21.20;99.90
5675;DHT22;2860;54.284;10.158;2023-06-04T10:45:41;21.30;99.90
5675;DHT22;2860;54.284;10.158;2023-06-04T10:48:09;21.30;99.90
5675;DHT22;2860;54.284;10.158;2023-06-04T10:50:48;21.30;99.90
5675;DHT22;2860;54.284;10.158;2023-06-04T10:53:14;21.30;99.90
5675;DHT22;2860;54.284;10.158;2023-06-04T10:55:47;21.50;99.90
5675;DHT22;2860;54.284;10.158;2023-06-04T10:58:12;21.50;99.90
5675;DHT22;2860;54.284;10.158;2023-06-04T11:00:40;21.40;99.90
5675;DHT22;2860;54.284;10.158;2023-06-04T11:03:08;21.20;99.90
5675;DHT22;2860;54.284;10.158;2023-06-04T11:05:41;21.00;99.90
5675;DHT22;2860;54.284;10.158;2023-06-04T11:08:08;21.20;99.90
5675;DHT22;2860;54.284;10.158;2023-06-04T11:10:37;21.30;99.90
5675;DHT22;2860;54.284;10.158;2023-06-04T11:13:03;21.50;99.90
5675;DHT22;2860;54.284;10.158;2023-06-04T11:15:45;21.70;99.90
5675;DHT22;2860;54.284;10.158;2023-06-04T11:18:14;21.80;99.90
5675;DHT22;2860;54.284;10.158;2023-06-04T11:20:40;21.80;99.90
5675;DHT22;2860;54.284;10.158;2023-06-04T11:23:07;21.80;99.90
5675;DHT22;2860;54.284;10.158;2023-06-04T11:25:33;21.80;99.90
5675;DHT22;2860;54.284;10.158;2023-06-04T11:28:00;21.80;99.90
5675;DHT22;2860;54.284;10.158;2023-06-04T11:30:27;22.00;99.90
5675;DHT22;2860;54.284;10.158;2023-06-04T11:33:03;21.90;99.90
5675;DHT22;2860;54.284;10.158;2023-06-04T11:35:29;21.70;99.90
5675;DHT22;2860;54.284;10.158;2023-06-04T11:37:56;21.70;99.90
5675;DHT22;2860;54.284;10.158;2023-06-04T11:40:22;21.80;99.90
5675;DHT22;2860;54.284;10.158;2023-06-04T11:42:49;21.70;99.90
5675;DHT22;2860;54.284;10.158;2023-06-04T11:45:18;21.60;99.90
5675;DHT22;2860;54.284;10.158;2023-06-04T11:47:48;21.70;99.90
5675;DHT22;2860;54.284;10.158;2023-06-04T11:50:14;22.00;99.90
5675;DHT22;2860;54.284;10.158;2023-06-04T11:52:41;22.10;99.90
5675;DHT22;2860;54.284;10.158;2023-06-04T11:55:11;22.20;99.90
5675;DHT22;2860;54.284;10.158;2023-06-04T11:57:40;22.20;99.90
5675;DHT22;2860;54.284;10.158;2023-06-04T12:00:07;22.00;99.90
5675;DHT22;2860;54.284;10.158;2023-06-04T12:02:36;22.10;99.90
5675;DHT22;2860;54.284;10.158;2023-06-04T12:05:15;22.10;99.90
5675;DHT22;2860;54.284;10.158;2023-06-04T12:07:41;22.10;99.90
5675;DHT22;2860;54.284;10.158;2023-06-04T12:10:07;22.10;99.90
5675;DHT22;2860;54.284;10.158;2023-06-04T12:12:34;22.30;99.90
5675;DHT22;2860;54.284;10.158;2023-06-04T12:15:00;22.60;99.90
5675;DHT22;2860;54.284;10.158;2023-06-04T12:17:26;22.70;99.90
5675;DHT22;2860;54.284;10.158;2023-06-04T12:19:52;22.80;99.90
5675;DHT22;2860;54.284;10.158;2023-06-04T12:22:17;22.90;99.90
5675;DHT22;2860;54.284;10.158;2023-06-04T12:24:53;22.70;99.90
5675;DHT22;2860;54.284;10.158;2023-06-04T12:27:20;22.40;99.90
5675;DHT22;2860;54.284;10.158;2023-06-04T12:29:58;22.30;99.90
5675;DHT22;2860;54.284;10.158;2023-06-04T12:32:24;22.30;99.90
5675;DHT22;2860;54.284;10.158;2023-06-04T12:34:50;22.30;99.90
5675;DHT22;2860;54.284;10.158;2023-06-04T12:37:15;22.30;99.90
5675;DHT22;2860;54.284;10.158;2023-06-04T12:39:41;22.40;99.90
5675;DHT22;2860;54.284;10.158;2023-06-04T12:42:08;22.60;99.90
5675;DHT22;2860;54.284;10.158;2023-06-04T12:44:38;22.70;99.90
5675;DHT22;2860;54.284;10.158;2023-06-04T12:47:04;22.40;99.90
5675;DHT22;2860;54.284;10.158;2023-06-04T12:49:30;22.30;99.90
5675;DHT22;2860;54.284;10.158;2023-06-04T12:51:56;22.30;99.90
5675;DHT22;2860;54.284;10.158;2023-06-04T12:54:22;22.60;99.90
5675;DHT22;2860;54.284;10.158;2023-06-04T12:56:48;22.90;99.90
5675;DHT22;2860;54.284;10.158;2023-06-04T12:59:14;23.10;99.90
5675;DHT22;2860;54.284;10.158;2023-06-04T13:01:39;23.30;99.90
5675;DHT22;2860;54.284;10.158;2023-06-04T13:04:05;23.40;99.90
5675;DHT22;2860;54.284;10.158;2023-06-04T13:06:33;23.60;99.90
5675;DHT22;2860;54.284;10.158;2023-06-04T13:08:59;23.90;99.90
5675;DHT22;2860;54.284;10.158;2023-06-04T13:11:25;24.10;99.90
5675;DHT22;2860;54.284;10.158;2023-06-04T13:13:51;24.00;99.90
5675;DHT22;2860;54.284;10.158;2023-06-04T13:16:16;23.80;99.90
5675;DHT22;2860;54.284;10.158;2023-06-04T13:18:42;23.50;99.90
5675;DHT22;2860;54.284;10.158;2023-06-04T13:21:07;23.10;99.90
5675;DHT22;2860;54.284;10.158;2023-06-04T13:23:33;23.00;99.90
5675;DHT22;2860;54.284;10.158;2023-06-04T13:25:58;22.90;99.90
5675;DHT22;2860;54.284;10.158;2023-06-04T13:28:24;23.00;99.90
5675;DHT22;2860;54.284;10.158;2023-06-04T13:30:49;23.40;99.90
5675;DHT22;2860;54.284;10.158;2023-06-04T13:33:15;23.60;99.90
5675;DHT22;2860;54.284;10.158;2023-06-04T13:35:40;23.70;99.90
5675;DHT22;2860;54.284;10.158;2023-06-04T13:38:07;23.80;99.90
5675;DHT22;2860;54.284;10.158;2023-06-04T13:40:36;23.60;99.90
5675;DHT22;2860;54.284;10.158;2023-06-04T13:43:02;23.50;99.90
5675;DHT22;2860;54.284;10.158;2023-06-04T13:45:27;23.10;99.90
5675;DHT22;2860;54.284;10.158;2023-06-04T13:47:53;22.60;99.90
5675;DHT22;2860;54.284;10.158;2023-06-04T13:50:18;22.30;99.90
5675;DHT22;2860;54.284;10.158;2023-06-04T13:52:44;22.30;99.90
5675;DHT22;2860;54.284;10.158;2023-06-04T13:55:12;22.10;99.90
5675;DHT22;2860;54.284;10.158;2023-06-04T13:57:37;21.60;99.90
5675;DHT22;2860;54.284;10.158;2023-06-04T14:00:03;21.30;99.90
5675;DHT22;2860;54.284;10.158;2023-06-04T14:02:30;21.10;99.90
5675;DHT22;2860;54.284;10.158;2023-06-04T14:04:55;21.10;99.90
5675;DHT22;2860;54.284;10.158;2023-06-04T14:07:21;21.10;99.90
5675;DHT22;2860;54.284;10.158;2023-06-04T14:09:47;21.20;99.90
5675;DHT22;2860;54.284;10.158;2023-06-04T14:12:14;21.50;99.90
5675;DHT22;2860;54.284;10.158;2023-06-04T14:14:43;21.70;99.90
5675;DHT22;2860;54.284;10.158;2023-06-04T14:17:08;21.90;99.90
5675;DHT22;2860;54.284;10.158;2023-06-04T14:19:34;22.00;99.90
5675;DHT22;2860;54.284;10.158;2023-06-04T14:22:00;22.30;99.90
5675;DHT22;2860;54.284;10.158;2023-06-04T14:24:25;22.20;99.90
5675;DHT22;2860;54.284;10.158;2023-06-04T14:26:51;22.20;99.90
5675;DHT22;2860;54.284;10.158;2023-06-04T14:29:16;22.00;99.90
5675;DHT22;2860;54.284;10.158;2023-06-04T14:31:42;21.80;99.90
5675;DHT22;2860;54.284;10.158;2023-06-04T14:34:08;21.70;99.90
5675;DHT22;2860;54.284;10.158;2023-06-04T14:36:34;21.80;99.90
5675;DHT22;2860;54.284;10.158;2023-06-04T14:39:00;22.00;99.90
5675;DHT22;2860;54.284;10.158;2023-06-04T14:41:25;22.10;99.90
5675;DHT22;2860;54.284;10.158;2023-06-04T14:43:52;22.10;99.90
5675;DHT22;2860;54.284;10.158;2023-06-04T14:46:18;22.10;99.90
5675;DHT22;2860;54.284;10.158;2023-06-04T14:48:43;22.10;99.90
5675;DHT22;2860;54.284;10.158;2023-06-04T14:51:10;22.00;99.90
5675;DHT22;2860;54.284;10.158;2023-06-04T14:53:35;21.90;99.90
5675;DHT22;2860;54.284;10.158;2023-06-04T14:56:04;22.00;99.90
5675;DHT22;2860;54.284;10.158;2023-06-04T14:58:30;22.10;99.90
5675;DHT22;2860;54.284;10.158;2023-06-04T15:00:55;22.00;99.90
5675;DHT22;2860;54.284;10.158;2023-06-04T15:03:24;22.00;99.90
5675;DHT22;2860;54.284;10.158;2023-06-04T15:05:49;22.10;99.90
5675;DHT22;2860;54.284;10.158;2023-06-04T15:08:15;22.00;99.90
5675;DHT22;2860;54.284;10.158;2023-06-04T15:10:40;22.00;99.90
5675;DHT22;2860;54.284;10.158;2023-06-04T15:13:06;22.20;99.90
5675;DHT22;2860;54.284;10.158;2023-06-04T15:15:31;22.30;99.90
5675;DHT22;2860;54.284;10.158;2023-06-04T15:17:57;22.20;99.90
5675;DHT22;2860;54.284;10.158;2023-06-04T15:20:25;22.10;99.90
5675;DHT22;2860;54.284;10.158;2023-06-04T15:22:53;22.00;99.90
5675;DHT22;2860;54.284;10.158;2023-06-04T15:25:19;22.10;99.90
5675;DHT22;2860;54.284;10.158;2023-06-04T15:27:44;22.20;99.90
5675;DHT22;2860;54.284;10.158;2023-06-04T15:30:10;22.20;99.90
5675;DHT22;2860;54.284;10.158;2023-06-04T15:32:36;22.20;99.90
5675;DHT22;2860;54.284;10.158;2023-06-04T15:35:03;22.20;99.90
5675;DHT22;2860;54.284;10.158;2023-06-04T15:37:28;22.10;99.90
5675;DHT22;2860;54.284;10.158;2023-06-04T15:39:54;22.10;99.90
5675;DHT22;2860;54.284;10.158;2023-06-04T15:42:20;22.10;99.90
5675;DHT22;2860;54.284;10.158;2023-06-04T15:44:45;22.00;99.90
5675;DHT22;2860;54.284;10.158;2023-06-04T15:47:11;21.90;99.90
5675;DHT22;2860;54.284;10.158;2023-06-04T15:49:37;21.90;99.90
5675;DHT22;2860;54.284;10.158;2023-06-04T15:52:03;21.70;99.90
5675;DHT22;2860;54.284;10.158;2023-06-04T15:54:28;21.60;99.90